createdAt,value
2019-02-09T00:00:18.348Z,7.74
2019-02-09T00:01:18.339Z,7.71
2019-02-09T00:02:18.317Z,7.69
2019-02-09T00:03:18.324Z,7.77
2019-02-09T00:04:18.269Z,7.73
2019-02-09T00:05:18.268Z,7.73
2019-02-09T00:06:18.220Z,7.71
2019-02-09T00:07:18.190Z,7.64
2019-02-09T00:08:18.162Z,7.66
2019-02-09T00:09:18.145Z,7.68
2019-02-09T00:10:18.119Z,7.68
2019-02-09T00:11:18.093Z,7.71
2019-02-09T00:12:18.075Z,7.73
2019-02-09T00:13:18.071Z,7.74
2019-02-09T00:14:18.032Z,7.68
2019-02-09T00:15:18.056Z,7.64
2019-02-09T00:16:18.006Z,7.68
2019-02-09T00:17:17.980Z,7.62
2019-02-09T00:18:17.965Z,7.62
2019-02-09T00:19:17.931Z,7.58
2019-02-09T00:20:17.900Z,7.61
2019-02-09T00:21:17.871Z,7.62
2019-02-09T00:22:17.850Z,7.64
2019-02-09T00:23:17.841Z,7.64
2019-02-09T00:24:17.801Z,7.60
2019-02-09T00:25:17.784Z,7.64
2019-02-09T00:26:17.749Z,7.64
2019-02-09T00:27:17.741Z,7.64
2019-02-09T00:28:17.704Z,7.57
2019-02-09T00:29:17.694Z,7.57
2019-02-09T00:30:17.661Z,7.60
2019-02-09T00:31:17.636Z,7.62
2019-02-09T00:32:17.625Z,7.57
2019-02-09T00:33:17.607Z,7.62
2019-02-09T00:34:17.596Z,7.60
2019-02-09T00:35:17.567Z,7.58
2019-02-09T00:36:17.524Z,7.64
2019-02-09T00:37:17.509Z,7.57
2019-02-09T00:38:17.484Z,7.60
2019-02-09T00:39:17.468Z,7.58
2019-02-09T00:40:17.439Z,7.55
2019-02-09T00:41:17.401Z,7.52
2019-02-09T00:42:17.390Z,7.54
2019-02-09T00:43:17.356Z,7.52
2019-02-09T00:44:17.334Z,7.55
2019-02-09T00:45:17.312Z,7.52
2019-02-09T00:46:17.296Z,7.54
2019-02-09T00:47:17.262Z,7.57
2019-02-09T00:48:17.241Z,7.52
2019-02-09T00:49:17.237Z,7.58
2019-02-09T00:50:17.221Z,7.58
2019-02-09T00:51:17.184Z,7.54
2019-02-09T00:52:17.161Z,7.54
2019-02-09T00:53:17.132Z,7.54
2019-02-09T00:54:17.121Z,7.54
2019-02-09T00:55:17.080Z,7.62
2019-02-09T00:56:17.067Z,7.54
2019-02-09T00:57:17.040Z,7.60
2019-02-09T00:58:17.011Z,7.49
2019-02-09T00:59:17.059Z,7.57
2019-02-09T01:00:16.965Z,7.55
2019-02-09T01:01:16.945Z,7.55
2019-02-09T01:02:16.916Z,7.57
2019-02-09T01:03:16.909Z,7.52
2019-02-09T01:04:16.927Z,7.62
2019-02-09T01:05:16.858Z,7.55
2019-02-09T01:06:16.831Z,7.52
2019-02-09T01:07:16.810Z,7.52
2019-02-09T01:08:16.794Z,7.54
2019-02-09T01:09:16.760Z,7.55
2019-02-09T01:10:16.737Z,7.52
2019-02-09T01:11:16.714Z,7.52
2019-02-09T01:12:16.686Z,7.55
2019-02-09T01:13:16.694Z,7.49
2019-02-09T01:14:16.650Z,7.57
2019-02-09T01:15:16.621Z,7.57
2019-02-09T01:16:16.621Z,7.47
2019-02-09T01:17:16.578Z,7.54
2019-02-09T01:18:16.549Z,7.44
2019-02-09T01:19:16.523Z,7.47
2019-02-09T01:20:16.498Z,7.47
2019-02-09T01:21:16.498Z,7.50
2019-02-09T01:22:16.467Z,7.52
2019-02-09T01:23:16.454Z,7.52
2019-02-09T01:24:16.414Z,7.55
2019-02-09T01:25:16.384Z,7.50
2019-02-09T01:26:16.384Z,7.46
2019-02-09T01:27:16.346Z,7.42
2019-02-09T01:28:16.316Z,7.43
2019-02-09T01:29:16.309Z,7.42
2019-02-09T01:30:16.271Z,7.42
2019-02-09T01:31:16.576Z,7.42
2019-02-09T01:32:16.223Z,7.33
2019-02-09T01:33:16.205Z,7.33
2019-02-09T01:34:16.182Z,7.36
2019-02-09T01:35:16.174Z,7.26
2019-02-09T01:36:16.207Z,7.31
2019-02-09T01:37:16.110Z,7.33
2019-02-09T01:38:16.085Z,7.26
2019-02-09T01:39:16.733Z,7.21
2019-02-09T01:40:16.044Z,7.31
2019-02-09T01:41:16.030Z,7.31
2019-02-09T01:42:15.988Z,7.29
2019-02-09T01:43:16.378Z,7.28
2019-02-09T01:44:15.996Z,7.21
2019-02-09T01:45:15.929Z,7.29
2019-02-09T01:46:15.926Z,7.24
2019-02-09T01:47:15.931Z,7.37
2019-02-09T01:48:15.875Z,7.31
2019-02-09T01:49:15.860Z,7.26
2019-02-09T01:50:15.866Z,7.31
2019-02-09T01:51:15.782Z,7.33
2019-02-09T01:52:15.758Z,7.29
2019-02-09T01:53:15.760Z,7.34
2019-02-09T01:54:15.724Z,7.29
2019-02-09T01:55:15.702Z,7.34
2019-02-09T01:56:15.682Z,7.33
2019-02-09T01:57:15.643Z,7.39
2019-02-09T01:58:15.634Z,7.31
2019-02-09T01:59:15.604Z,7.33
2019-02-09T02:00:15.624Z,7.26
2019-02-09T02:01:15.569Z,7.43
2019-02-09T02:02:15.526Z,7.33
2019-02-09T02:03:15.510Z,7.29
2019-02-09T02:04:15.498Z,7.33
2019-02-09T02:05:15.491Z,7.29
2019-02-09T02:06:15.431Z,7.39
2019-02-09T02:07:15.441Z,7.43
2019-02-09T02:08:15.408Z,7.28
2019-02-09T02:09:15.391Z,7.31
2019-02-09T02:10:15.347Z,7.36
2019-02-09T02:11:15.334Z,7.40
2019-02-09T02:12:15.309Z,7.31
2019-02-09T02:16:19.453Z,7.36
2019-02-09T02:17:19.423Z,7.36
2019-02-09T02:19:14.777Z,7.31
2019-02-09T02:20:14.763Z,7.31
2019-02-09T02:21:14.720Z,7.33
2019-02-09T02:22:14.704Z,7.36
2019-02-09T02:23:14.675Z,7.31
2019-02-09T02:24:14.650Z,7.31
2019-02-09T02:25:14.623Z,7.33
2019-02-09T02:26:14.603Z,7.33
2019-02-09T02:27:14.587Z,7.26
2019-02-09T02:28:14.575Z,7.31
2019-02-09T02:29:14.534Z,7.33
2019-02-09T02:30:22.158Z,7.34
2019-02-09T02:31:14.540Z,7.33
2019-02-09T02:32:14.474Z,7.37
2019-02-09T02:33:14.449Z,7.37
2019-02-09T02:34:14.420Z,7.33
2019-02-09T02:35:14.402Z,7.26
2019-02-09T02:36:14.379Z,7.46
2019-02-09T02:37:14.359Z,7.39
2019-02-09T02:38:14.325Z,7.42
2019-02-09T02:39:14.297Z,7.36
2019-02-09T02:40:14.290Z,7.28
2019-02-09T02:41:14.253Z,7.36
2019-02-09T02:42:14.250Z,7.29
2019-02-09T02:43:14.222Z,7.36
2019-02-09T02:44:14.205Z,7.34
2019-02-09T02:45:14.163Z,7.29
2019-02-09T02:46:14.165Z,7.33
2019-02-09T02:47:14.132Z,7.34
2019-02-09T02:48:14.133Z,7.33
2019-02-09T02:49:14.075Z,7.28
2019-02-09T02:50:14.050Z,7.31
2019-02-09T02:51:14.043Z,7.25
2019-02-09T02:52:14.009Z,7.21
2019-02-09T02:53:13.986Z,7.22
2019-02-09T02:54:13.954Z,7.22
2019-02-09T02:55:13.932Z,7.34
2019-02-09T02:56:13.902Z,7.19
2019-02-09T02:57:13.898Z,7.28
2019-02-09T02:58:13.862Z,7.25
2019-02-09T02:59:13.835Z,7.22
2019-02-09T03:00:13.812Z,7.28
2019-02-09T03:01:13.794Z,7.22
2019-02-09T03:02:13.806Z,7.37
2019-02-09T03:03:13.751Z,7.24
2019-02-09T03:04:13.744Z,7.28
2019-02-09T03:05:13.746Z,7.28
2019-02-09T03:06:13.665Z,7.33
2019-02-09T03:07:13.663Z,7.31
2019-02-09T03:08:13.618Z,7.37
2019-02-09T03:09:13.594Z,7.31
2019-02-09T03:10:13.587Z,7.31
2019-02-09T03:11:13.571Z,7.39
2019-02-09T03:12:13.539Z,7.31
2019-02-09T03:13:13.510Z,7.34
2019-02-09T03:14:13.492Z,7.44
2019-02-09T03:15:13.454Z,7.46
2019-02-09T03:16:13.441Z,7.42
2019-02-09T03:17:13.409Z,7.46
2019-02-09T03:18:13.415Z,7.47
2019-02-09T03:19:13.407Z,7.54
2019-02-09T03:20:13.358Z,7.46
2019-02-09T03:21:13.338Z,7.46
2019-02-09T03:22:13.290Z,7.64
2019-02-09T03:23:13.271Z,7.52
2019-02-09T03:24:13.283Z,7.57
2019-02-09T03:25:13.237Z,7.61
2019-02-09T03:26:13.235Z,7.58
2019-02-09T03:27:13.186Z,7.64
2019-02-09T03:28:13.167Z,7.77
2019-02-09T03:29:13.137Z,7.71
2019-02-09T03:30:13.115Z,7.66
2019-02-09T03:31:13.089Z,7.74
2019-02-09T03:32:13.086Z,7.83
2019-02-09T03:33:13.069Z,7.77
2019-02-09T03:34:13.017Z,7.84
2019-02-09T03:35:12.997Z,7.86
2019-02-09T03:36:12.979Z,7.88
2019-02-09T03:37:12.957Z,7.80
2019-02-09T03:38:12.929Z,7.78
2019-02-09T03:39:12.935Z,7.92
2019-02-09T03:40:12.881Z,7.95
2019-02-09T03:41:12.861Z,7.86
2019-02-09T03:42:12.830Z,7.99
2019-02-09T03:43:12.808Z,7.99
2019-02-09T03:44:12.787Z,7.95
2019-02-09T03:45:12.762Z,8.10
2019-02-09T03:46:12.743Z,8.02
2019-02-09T03:47:12.713Z,8.04
2019-02-09T03:48:12.694Z,8.05
2019-02-09T03:49:12.711Z,8.06
2019-02-09T03:50:12.659Z,8.02
2019-02-09T03:51:12.625Z,8.01
2019-02-09T03:52:12.603Z,8.05
2019-02-09T03:53:12.566Z,8.02
2019-02-09T03:54:12.544Z,8.09
2019-02-09T03:55:12.569Z,8.09
2019-02-09T03:56:12.497Z,8.13
2019-02-09T03:57:12.487Z,8.21
2019-02-09T03:58:12.468Z,8.14
2019-02-09T03:59:12.438Z,8.12
2019-02-09T04:00:12.405Z,8.12
2019-02-09T04:01:12.382Z,8.14
2019-02-09T04:02:12.390Z,8.13
2019-02-09T04:03:12.344Z,8.10
2019-02-09T04:04:12.319Z,8.14
2019-02-09T04:05:12.288Z,8.21
2019-02-09T04:06:12.280Z,8.16
2019-02-09T04:07:12.244Z,8.19
2019-02-09T04:08:12.225Z,8.21
2019-02-09T04:09:12.201Z,8.23
2019-02-09T04:10:12.171Z,8.35
2019-02-09T04:11:12.172Z,8.32
2019-02-09T04:12:12.133Z,8.23
2019-02-09T04:13:12.109Z,8.24
2019-02-09T04:14:12.112Z,8.20
2019-02-09T04:15:12.077Z,8.24
2019-02-09T04:16:12.031Z,8.24
2019-02-09T04:17:12.005Z,8.17
2019-02-09T04:18:12.017Z,8.23
2019-02-09T04:19:11.987Z,8.20
2019-02-09T04:20:11.943Z,8.21
2019-02-09T04:21:11.929Z,8.21
2019-02-09T04:22:11.914Z,8.16
2019-02-09T04:23:11.873Z,8.21
2019-02-09T04:24:11.849Z,8.19
2019-02-09T04:25:11.855Z,8.19
2019-02-09T04:26:11.822Z,8.16
2019-02-09T04:27:11.772Z,8.20
2019-02-09T04:28:11.761Z,8.16
2019-02-09T04:29:11.766Z,8.23
2019-02-09T04:30:11.722Z,8.19
2019-02-09T04:31:11.711Z,8.16
2019-02-09T04:32:11.691Z,8.17
2019-02-09T04:33:11.646Z,8.19
2019-02-09T04:34:11.676Z,8.16
2019-02-09T04:35:11.597Z,8.20
2019-02-09T04:36:11.616Z,8.20
2019-02-09T04:37:11.576Z,8.17
2019-02-09T04:38:11.542Z,8.17
2019-02-09T04:39:11.500Z,8.21
2019-02-09T04:40:11.484Z,8.24
2019-02-09T04:41:11.456Z,8.24
2019-02-09T04:42:11.427Z,8.17
2019-02-09T04:43:11.438Z,8.31
2019-02-09T04:44:11.404Z,8.37
2019-02-09T04:45:11.369Z,8.35
2019-02-09T04:46:11.352Z,8.21
2019-02-09T04:47:11.366Z,8.21
2019-02-09T04:48:11.332Z,8.24
2019-02-09T04:49:11.276Z,8.29
2019-02-09T04:50:11.241Z,8.31
2019-02-09T04:51:11.222Z,8.31
2019-02-09T04:52:11.194Z,8.32
2019-02-09T04:53:11.182Z,8.26
2019-02-09T04:54:11.154Z,8.23
2019-02-09T04:55:11.126Z,8.28
2019-02-09T04:56:11.103Z,8.23
2019-02-09T04:57:11.194Z,8.23
2019-02-09T04:58:11.054Z,8.17
2019-02-09T04:59:11.050Z,8.21
2019-02-09T05:00:11.039Z,8.17
2019-02-09T05:01:14.065Z,8.12
2019-02-09T05:02:11.002Z,8.17
2019-02-09T05:03:10.961Z,8.16
2019-02-09T05:04:10.928Z,8.09
2019-02-09T05:05:10.890Z,8.10
2019-02-09T05:06:10.872Z,8.04
2019-02-09T05:07:10.876Z,8.19
2019-02-09T05:08:10.820Z,8.10
2019-02-09T05:09:10.836Z,8.19
2019-02-09T05:10:10.797Z,8.17
2019-02-09T05:11:10.746Z,8.21
2019-02-09T05:12:10.732Z,8.17
2019-02-09T05:13:10.721Z,8.04
2019-02-09T05:14:10.687Z,8.06
2019-02-09T05:15:10.660Z,8.04
2019-02-09T05:16:10.638Z,8.02
2019-02-09T05:17:10.609Z,8.01
2019-02-09T05:18:10.589Z,8.05
2019-02-09T05:19:10.567Z,7.99
2019-02-09T05:20:10.543Z,7.95
2019-02-09T05:21:10.523Z,8.10
2019-02-09T05:22:10.520Z,7.96
2019-02-09T05:23:10.478Z,8.04
2019-02-09T05:24:10.473Z,8.05
2019-02-09T05:25:10.445Z,8.02
2019-02-09T05:26:10.401Z,8.06
2019-02-09T05:27:10.393Z,8.05
2019-02-09T05:28:10.355Z,8.10
2019-02-09T05:29:10.362Z,8.09
2019-02-09T05:30:10.303Z,8.02
2019-02-09T05:31:10.298Z,8.04
2019-02-09T05:32:10.255Z,8.12
2019-02-09T05:33:10.240Z,8.05
2019-02-09T05:34:10.228Z,8.05
2019-02-09T05:35:10.190Z,8.04
2019-02-09T05:36:10.167Z,8.05
2019-02-09T05:37:10.151Z,8.01
2019-02-09T05:38:10.119Z,8.09
2019-02-09T05:39:10.109Z,7.99
2019-02-09T05:40:10.071Z,8.01
2019-02-09T05:41:10.060Z,7.99
2019-02-09T05:42:10.048Z,8.04
2019-02-09T05:43:10.011Z,7.95
2019-02-09T05:44:09.980Z,8.09
2019-02-09T05:45:09.992Z,7.96
2019-02-09T05:46:09.982Z,8.02
2019-02-09T05:47:09.916Z,8.02
2019-02-09T05:48:09.929Z,7.99
2019-02-09T05:49:09.860Z,8.06
2019-02-09T05:50:09.856Z,8.06
2019-02-09T05:51:09.846Z,8.09
2019-02-09T05:52:09.795Z,7.98
2019-02-09T05:53:09.798Z,7.98
2019-02-09T05:54:09.770Z,8.02
2019-02-09T05:55:09.723Z,8.01
2019-02-09T05:56:09.708Z,7.95
2019-02-09T05:57:09.676Z,8.01
2019-02-09T05:58:09.673Z,7.99
2019-02-09T05:59:09.637Z,7.96
2019-02-09T06:00:09.641Z,8.02
2019-02-09T06:01:09.622Z,7.98
2019-02-09T06:02:09.573Z,7.96
2019-02-09T06:03:09.546Z,7.96
2019-02-09T06:04:09.534Z,7.96
2019-02-09T06:05:09.508Z,8.01
2019-02-09T06:06:09.463Z,8.02
2019-02-09T06:07:09.457Z,8.05
2019-02-09T06:08:09.445Z,8.05
2019-02-09T06:09:09.396Z,8.06
2019-02-09T06:10:09.371Z,8.13
2019-02-09T06:11:09.354Z,8.16
2019-02-09T06:12:09.355Z,8.20
2019-02-09T06:13:09.314Z,8.16
2019-02-09T06:14:09.318Z,8.19
2019-02-09T06:15:09.254Z,8.23
2019-02-09T06:16:09.245Z,8.19
2019-02-09T06:17:09.239Z,8.20
2019-02-09T06:18:09.201Z,8.14
2019-02-09T06:19:09.158Z,8.19
2019-02-09T06:20:09.143Z,8.17
2019-02-09T06:21:09.124Z,8.26
2019-02-09T06:22:09.108Z,8.19
2019-02-09T06:23:09.072Z,8.20
2019-02-09T06:24:09.052Z,8.29
2019-02-09T06:25:09.020Z,8.17
2019-02-09T06:26:08.994Z,8.31
2019-02-09T06:27:09.009Z,8.28
2019-02-09T06:28:08.970Z,8.26
2019-02-09T06:29:08.940Z,8.23
2019-02-09T06:30:08.908Z,8.17
2019-02-09T06:31:08.901Z,8.24
2019-02-09T06:32:08.905Z,8.24
2019-02-09T06:33:08.838Z,8.24
2019-02-09T06:34:08.842Z,8.29
2019-02-09T06:35:08.801Z,8.17
2019-02-09T06:36:08.782Z,8.19
2019-02-09T06:37:08.759Z,8.17
2019-02-09T06:38:08.746Z,8.21
2019-02-09T06:39:08.702Z,8.17
2019-02-09T06:40:08.671Z,8.19
2019-02-09T06:41:08.672Z,8.12
2019-02-09T06:42:08.650Z,8.10
2019-02-09T06:43:08.613Z,8.01
2019-02-09T06:44:08.596Z,7.99
2019-02-09T06:45:08.558Z,8.04
2019-02-09T06:46:08.537Z,7.92
2019-02-09T06:47:08.515Z,7.91
2019-02-09T06:48:08.501Z,7.96
2019-02-09T06:49:08.506Z,8.01
2019-02-09T06:50:08.435Z,8.04
2019-02-09T06:51:08.423Z,7.94
2019-02-09T06:52:08.398Z,7.87
2019-02-09T06:53:08.366Z,7.88
2019-02-09T06:54:08.349Z,8.01
2019-02-09T06:55:08.343Z,7.86
2019-02-09T06:56:08.298Z,7.92
2019-02-09T06:57:08.275Z,7.81
2019-02-09T06:58:08.261Z,7.78
2019-02-09T06:59:08.235Z,7.77
2019-02-09T07:00:08.217Z,7.69
2019-02-09T07:01:08.186Z,7.71
2019-02-09T07:02:08.176Z,7.68
2019-02-09T07:03:08.130Z,7.62
2019-02-09T07:04:08.111Z,7.60
2019-02-09T07:05:08.089Z,7.54
2019-02-09T07:06:08.083Z,7.58
2019-02-09T07:07:08.048Z,7.60
2019-02-09T07:08:08.085Z,7.57
2019-02-09T07:09:07.990Z,7.58
2019-02-09T07:10:07.974Z,7.54
2019-02-09T07:11:07.949Z,7.44
2019-02-09T07:12:07.921Z,7.50
2019-02-09T07:13:07.903Z,7.46
2019-02-09T07:14:07.909Z,7.49
2019-02-09T07:15:07.887Z,7.44
2019-02-09T07:16:07.824Z,7.46
2019-02-09T07:17:07.796Z,7.44
2019-02-09T07:18:07.773Z,7.44
2019-02-09T07:19:07.767Z,7.46
2019-02-09T07:20:07.732Z,7.47
2019-02-09T07:21:07.720Z,7.44
2019-02-09T07:22:07.692Z,7.46
2019-02-09T07:23:07.664Z,7.42
2019-02-09T07:24:07.639Z,7.34
2019-02-09T07:25:07.615Z,7.28
2019-02-09T07:26:07.588Z,7.29
2019-02-09T07:27:07.561Z,7.42
2019-02-09T07:28:07.589Z,7.37
2019-02-09T07:29:07.515Z,7.24
2019-02-09T07:30:07.541Z,7.22
2019-02-09T07:31:07.470Z,7.19
2019-02-09T07:32:07.456Z,7.25
2019-02-09T07:33:07.422Z,7.18
2019-02-09T07:34:07.422Z,7.22
2019-02-09T07:35:07.386Z,7.18
2019-02-09T07:36:07.370Z,7.10
2019-02-09T07:37:07.339Z,7.15
2019-02-09T07:38:07.325Z,7.11
2019-02-09T07:39:07.282Z,7.19
2019-02-09T07:40:07.260Z,7.13
2019-02-09T07:41:07.241Z,7.13
2019-02-09T07:42:07.227Z,7.16
2019-02-09T07:43:07.194Z,7.13
2019-02-09T07:44:07.161Z,7.22
2019-02-09T07:45:07.146Z,7.25
2019-02-09T07:46:07.136Z,7.24
2019-02-09T07:47:07.103Z,7.28
2019-02-09T07:48:07.062Z,7.21
2019-02-09T07:49:07.051Z,7.24
2019-02-09T07:50:07.017Z,7.33
2019-02-09T07:51:06.997Z,7.25
2019-02-09T07:52:06.998Z,7.31
2019-02-09T07:53:06.964Z,7.33
2019-02-09T07:54:06.926Z,7.37
2019-02-09T07:55:06.929Z,7.24
2019-02-09T07:56:06.912Z,7.29
2019-02-09T07:57:06.856Z,7.22
2019-02-09T07:58:06.825Z,7.31
2019-02-09T07:59:06.814Z,7.26
2019-02-09T08:00:06.783Z,7.25
2019-02-09T08:01:06.796Z,7.22
2019-02-09T08:02:06.757Z,7.21
2019-02-09T08:03:06.722Z,7.24
2019-02-09T08:04:06.688Z,7.28
2019-02-09T08:05:06.678Z,7.22
2019-02-09T08:06:06.668Z,7.29
2019-02-09T08:07:06.612Z,7.28
2019-02-09T08:08:06.615Z,7.29
2019-02-09T08:09:06.614Z,7.26
2019-02-09T08:10:06.557Z,7.24
2019-02-09T08:11:09.218Z,7.21
2019-02-09T08:12:06.513Z,7.31
2019-02-09T08:13:06.521Z,7.36
2019-02-09T08:14:06.449Z,7.33
2019-02-09T08:15:06.454Z,7.43
2019-02-09T08:16:06.419Z,7.33
2019-02-09T08:17:06.376Z,7.46
2019-02-09T08:18:06.351Z,7.46
2019-02-09T08:19:06.333Z,7.46
2019-02-09T08:20:06.322Z,7.43
2019-02-09T08:21:06.303Z,7.52
2019-02-09T08:22:06.301Z,7.44
2019-02-09T08:23:06.235Z,7.46
2019-02-09T08:24:07.290Z,7.55
2019-02-09T08:25:06.186Z,7.62
2019-02-09T08:26:06.186Z,7.60
2019-02-09T08:27:06.169Z,7.61
2019-02-09T08:28:06.122Z,7.68
2019-02-09T08:29:06.135Z,7.69
2019-02-09T08:30:06.082Z,7.81
2019-02-09T08:31:06.071Z,7.77
2019-02-09T08:32:12.586Z,7.78
2019-02-09T08:33:06.015Z,7.74
2019-02-09T08:34:05.976Z,7.74
2019-02-09T08:35:05.978Z,7.84
2019-02-09T08:36:05.962Z,7.94
2019-02-09T08:37:05.942Z,7.92
2019-02-09T08:38:05.929Z,7.91
2019-02-09T08:39:05.895Z,7.96
2019-02-09T08:40:05.839Z,8.05
2019-02-09T08:41:05.844Z,8.14
2019-02-09T08:42:05.801Z,8.17
2019-02-09T08:43:05.868Z,8.19
2019-02-09T08:44:05.738Z,8.21
2019-02-09T08:45:05.724Z,8.26
2019-02-09T08:46:05.712Z,8.28
2019-02-09T08:47:05.670Z,8.37
2019-02-09T08:48:05.655Z,8.46
2019-02-09T08:49:05.632Z,8.46
2019-02-09T08:50:05.624Z,8.49
2019-02-09T08:51:05.586Z,8.42
2019-02-09T08:52:05.549Z,8.47
2019-02-09T08:53:05.540Z,8.46
2019-02-09T08:54:05.563Z,8.46
2019-02-09T08:55:05.482Z,8.60
2019-02-09T08:56:05.968Z,8.67
2019-02-09T08:57:05.450Z,8.60
2019-02-09T08:58:05.410Z,8.75
2019-02-09T08:59:05.392Z,8.80
2019-02-09T09:00:05.665Z,8.77
2019-02-09T09:01:05.346Z,8.95
2019-02-09T09:02:05.321Z,8.98
2019-02-09T09:03:05.301Z,8.95
2019-02-09T09:04:05.277Z,9.01
2019-02-09T09:05:09.720Z,8.90
2019-02-09T09:06:05.243Z,8.89
2019-02-09T09:07:05.203Z,8.92
2019-02-09T09:08:05.205Z,8.92
2019-02-09T09:09:05.171Z,8.86
2019-02-09T09:10:05.254Z,8.93
2019-02-09T09:11:05.112Z,8.92
2019-02-09T09:12:05.100Z,8.96
2019-02-09T09:13:08.439Z,9.06
2019-02-09T09:14:05.141Z,9.04
2019-02-09T09:15:05.032Z,9.12
2019-02-09T09:16:05.002Z,9.12
2019-02-09T09:17:05.004Z,9.18
2019-02-09T09:18:04.965Z,9.11
2019-02-09T09:19:04.937Z,9.16
2019-02-09T09:20:04.910Z,9.22
2019-02-09T09:21:04.898Z,9.30
2019-02-09T09:22:04.899Z,9.42
2019-02-09T09:23:04.993Z,9.41
2019-02-09T09:24:04.873Z,9.47
2019-02-09T09:25:05.392Z,9.52
2019-02-09T09:26:04.769Z,9.55
2019-02-09T09:27:04.763Z,9.54
2019-02-09T09:28:04.735Z,9.51
2019-02-09T09:29:04.714Z,9.44
2019-02-09T09:30:04.688Z,9.47
2019-02-09T09:31:04.676Z,9.47
2019-02-09T09:32:04.636Z,9.42
2019-02-09T09:33:04.622Z,9.41
2019-02-09T09:34:04.594Z,9.44
2019-02-09T09:35:04.565Z,9.37
2019-02-09T09:36:04.557Z,9.34
2019-02-09T09:37:04.541Z,9.37
2019-02-09T09:38:04.536Z,9.32
2019-02-09T09:39:04.500Z,9.33
2019-02-09T09:40:04.464Z,9.34
2019-02-09T09:41:04.465Z,9.30
2019-02-09T09:42:04.426Z,9.33
2019-02-09T09:43:04.398Z,9.41
2019-02-09T09:44:04.377Z,9.48
2019-02-09T09:45:04.342Z,9.45
2019-02-09T09:46:04.322Z,9.55
2019-02-09T09:47:04.307Z,9.59
2019-02-09T09:48:04.312Z,9.63
2019-02-09T09:49:04.256Z,9.78
2019-02-09T09:50:04.262Z,9.75
2019-02-09T09:51:04.238Z,9.77
2019-02-09T09:52:04.200Z,9.63
2019-02-09T09:53:04.193Z,9.80
2019-02-09T09:54:04.156Z,9.72
2019-02-09T09:55:04.147Z,9.80
2019-02-09T09:56:04.104Z,9.66
2019-02-09T09:57:04.092Z,9.65
2019-02-09T09:58:04.062Z,9.63
2019-02-09T09:59:04.057Z,9.60
2019-02-09T10:00:04.029Z,9.65
2019-02-09T10:01:04.017Z,9.59
2019-02-09T10:02:03.993Z,9.66
2019-02-09T10:03:03.964Z,9.80
2019-02-09T10:04:03.949Z,9.70
2019-02-09T10:05:03.912Z,9.75
2019-02-09T10:06:03.887Z,9.90
2019-02-09T10:07:03.886Z,9.83
2019-02-09T10:08:03.844Z,9.88
2019-02-09T10:09:03.829Z,9.70
2019-02-09T10:10:03.821Z,9.78
2019-02-09T10:11:03.781Z,9.69
2019-02-09T10:12:03.749Z,9.70
2019-02-09T10:13:03.725Z,9.75
2019-02-09T10:14:08.710Z,9.69
2019-02-09T10:15:03.690Z,9.72
2019-02-09T10:16:03.668Z,9.70
2019-02-09T10:17:03.631Z,9.80
2019-02-09T10:18:03.650Z,9.75
2019-02-09T10:19:03.601Z,9.77
2019-02-09T10:20:03.576Z,9.88
2019-02-09T10:21:03.547Z,9.94
2019-02-09T10:22:03.526Z,10.08
2019-02-09T10:23:03.516Z,10.26
2019-02-09T10:24:03.505Z,10.27
2019-02-09T10:25:03.467Z,10.26
2019-02-09T10:26:03.465Z,10.45
2019-02-09T10:27:03.439Z,10.54
2019-02-09T10:28:03.420Z,10.46
2019-02-09T10:29:03.399Z,10.45
2019-02-09T10:30:03.371Z,10.46
2019-02-09T10:31:03.341Z,10.41
2019-02-09T10:32:03.354Z,10.31
2019-02-09T10:33:03.303Z,10.27
2019-02-09T10:34:03.295Z,10.31
2019-02-09T10:35:03.249Z,10.21
2019-02-09T10:36:03.215Z,10.16
2019-02-09T10:37:03.198Z,10.09
2019-02-09T10:38:03.206Z,9.99
2019-02-09T10:39:03.177Z,9.94
2019-02-09T10:40:03.136Z,9.91
2019-02-09T10:41:03.111Z,9.87
2019-02-09T10:42:03.098Z,9.75
2019-02-09T10:43:03.076Z,9.81
2019-02-09T10:44:03.062Z,9.73
2019-02-09T10:45:03.022Z,9.67
2019-02-09T10:46:03.017Z,9.57
2019-02-09T10:47:02.986Z,9.48
2019-02-09T10:48:02.985Z,9.32
2019-02-09T10:49:02.941Z,9.22
2019-02-09T10:50:02.919Z,9.09
2019-02-09T10:51:02.906Z,9.01
2019-02-09T10:52:02.870Z,9.03
2019-02-09T10:53:02.860Z,9.18
2019-02-09T10:54:02.837Z,9.14
2019-02-09T10:55:02.825Z,9.26
2019-02-09T10:56:02.789Z,9.18
2019-02-09T10:57:02.770Z,9.16
2019-02-09T10:58:02.743Z,9.24
2019-02-09T10:59:02.728Z,9.27
2019-02-09T11:00:02.720Z,9.18
2019-02-09T11:01:02.679Z,9.23
2019-02-09T11:02:02.675Z,9.24
2019-02-09T11:03:02.639Z,9.14
2019-02-09T11:04:02.617Z,9.18
2019-02-09T11:05:02.587Z,9.15
2019-02-09T11:06:02.706Z,9.26
2019-02-09T11:07:02.610Z,9.27
2019-02-09T11:08:02.520Z,9.44
2019-02-09T11:09:02.566Z,9.45
2019-02-09T11:10:02.473Z,9.45
2019-02-09T11:11:02.456Z,9.45
2019-02-09T11:12:02.886Z,9.51
2019-02-09T11:13:02.702Z,9.50
2019-02-09T11:14:02.398Z,9.59
2019-02-09T11:15:02.366Z,9.62
2019-02-09T11:16:02.354Z,9.67
2019-02-09T11:17:02.321Z,9.78
2019-02-09T11:18:02.305Z,9.75
2019-02-09T11:19:02.275Z,9.78
2019-02-09T11:20:02.266Z,9.90
2019-02-09T11:21:02.253Z,9.87
2019-02-09T11:22:02.205Z,10.02
2019-02-09T11:23:02.214Z,9.98
2019-02-09T11:24:02.208Z,9.93
2019-02-09T11:25:02.147Z,9.88
2019-02-09T11:26:02.131Z,9.84
2019-02-09T11:27:02.119Z,9.84
2019-02-09T11:28:02.095Z,9.91
2019-02-09T11:29:02.080Z,9.93
2019-02-09T11:30:02.037Z,9.90
2019-02-09T11:31:02.014Z,9.81
2019-02-09T11:32:02.007Z,9.90
2019-02-09T11:33:02.700Z,9.81
2019-02-09T11:34:01.961Z,9.87
2019-02-09T11:35:01.940Z,9.85
2019-02-09T11:36:01.913Z,9.87
2019-02-09T11:37:01.889Z,9.81
2019-02-09T11:38:01.868Z,9.84
2019-02-09T11:39:01.871Z,9.85
2019-02-09T11:40:01.845Z,9.98
2019-02-09T11:41:01.797Z,10.01
2019-02-09T11:42:01.779Z,10.18
2019-02-09T11:43:01.778Z,10.23
2019-02-09T11:44:01.727Z,10.30
2019-02-09T11:45:01.711Z,10.41
2019-02-09T11:46:01.702Z,10.35
2019-02-09T11:47:01.666Z,10.26
2019-02-09T11:48:01.665Z,10.35
2019-02-09T11:49:01.659Z,10.42
2019-02-09T11:50:01.612Z,10.38
2019-02-09T11:51:01.598Z,10.35
2019-02-09T11:52:01.559Z,10.36
2019-02-09T11:53:02.063Z,10.46
2019-02-09T11:54:01.512Z,10.46
2019-02-09T11:55:01.496Z,10.43
2019-02-09T11:56:01.503Z,10.42
2019-02-09T11:57:01.444Z,10.57
2019-02-09T11:58:01.429Z,10.61
2019-02-09T11:59:01.419Z,10.48
2019-02-09T12:00:01.382Z,10.67
2019-02-09T12:01:01.352Z,10.62
2019-02-09T12:02:01.337Z,10.73
2019-02-09T12:03:05.509Z,10.67
2019-02-09T12:04:01.295Z,10.75
2019-02-09T12:05:01.276Z,10.73
2019-02-09T12:06:01.246Z,10.85
2019-02-09T12:07:01.233Z,10.82
2019-02-09T12:08:01.206Z,10.79
2019-02-09T12:09:01.179Z,10.65
2019-02-09T12:10:01.183Z,10.61
2019-02-09T12:11:01.157Z,10.57
2019-02-09T12:12:01.139Z,10.60
2019-02-09T12:13:01.094Z,10.61
2019-02-09T12:14:01.115Z,10.61
2019-02-09T12:15:01.055Z,10.62
2019-02-09T12:16:01.040Z,10.64
2019-02-09T12:17:01.022Z,10.52
2019-02-09T12:18:01.056Z,10.61
2019-02-09T12:19:00.981Z,10.49
2019-02-09T12:20:00.957Z,10.57
2019-02-09T12:21:00.928Z,10.49
2019-02-09T12:22:00.917Z,10.42
2019-02-09T12:23:00.881Z,10.39
2019-02-09T12:24:00.866Z,10.35
2019-02-09T12:25:00.836Z,10.28
2019-02-09T12:26:00.820Z,10.30
2019-02-09T12:27:00.790Z,10.34
2019-02-09T12:28:00.778Z,10.30
2019-02-09T12:29:00.746Z,10.36
2019-02-09T12:30:00.723Z,10.38
2019-02-09T12:31:00.722Z,10.31
2019-02-09T12:32:00.693Z,10.26
2019-02-09T12:33:00.663Z,10.34
2019-02-09T12:34:00.648Z,10.28
2019-02-09T12:35:00.634Z,10.31
2019-02-09T12:36:00.596Z,10.18
2019-02-09T12:37:00.580Z,10.21
2019-02-09T12:38:00.547Z,10.01
2019-02-09T12:39:00.537Z,9.93
2019-02-09T12:40:00.514Z,9.85
2019-02-09T12:41:00.517Z,9.73
2019-02-09T12:42:00.486Z,9.75
2019-02-09T12:43:00.455Z,9.62
2019-02-09T12:44:00.453Z,9.67
2019-02-09T12:45:00.400Z,9.48
2019-02-09T12:46:00.403Z,9.55
2019-02-09T12:47:00.363Z,9.57
2019-02-09T12:48:00.364Z,9.48
2019-02-09T12:49:00.339Z,9.44
2019-02-09T12:50:00.297Z,9.40
2019-02-09T12:51:00.269Z,9.51
2019-02-09T12:52:00.239Z,9.48
2019-02-09T12:53:00.226Z,9.50
2019-02-09T12:54:00.404Z,9.52
2019-02-09T12:55:00.183Z,9.59
2019-02-09T12:56:00.148Z,9.63
2019-02-09T12:57:00.149Z,9.63
2019-02-09T12:58:00.147Z,9.62
2019-02-09T12:59:00.084Z,9.70
2019-02-09T13:00:00.257Z,9.77
2019-02-09T13:01:00.056Z,9.77
2019-02-09T13:02:00.088Z,9.77
2019-02-09T13:02:59.997Z,9.72
2019-02-09T13:03:59.999Z,9.73
2019-02-09T13:04:59.952Z,9.73
2019-02-09T13:05:59.935Z,9.72
2019-02-09T13:06:59.911Z,9.72
2019-02-09T13:07:59.914Z,9.77
2019-02-09T13:08:59.897Z,9.77
2019-02-09T13:09:59.862Z,9.72
2019-02-09T13:10:59.823Z,9.67
2019-02-09T13:11:59.824Z,9.83
2019-02-09T13:12:59.774Z,9.75
2019-02-09T13:13:59.758Z,9.85
2019-02-09T13:14:59.738Z,9.98
2019-02-09T13:15:59.727Z,9.94
2019-02-09T13:16:59.696Z,10.02
2019-02-09T13:17:59.667Z,9.96
2019-02-09T13:18:59.667Z,10.01